createdAt,value
2022-10-18T00:00:13.186Z,72.33
2022-10-18T00:01:16.397Z,72.40
2022-10-18T00:02:20.421Z,72.42
2022-10-18T00:03:24.136Z,72.39
2022-10-18T00:04:27.109Z,72.62
2022-10-18T00:05:30.131Z,72.50
2022-10-18T00:06:33.150Z,72.47
2022-10-18T00:07:36.115Z,72.67
2022-10-18T00:08:40.147Z,72.59
2022-10-18T00:09:42.969Z,72.58
2022-10-18T00:10:46.278Z,72.79
2022-10-18T00:11:49.217Z,72.72
2022-10-18T00:12:52.394Z,72.82
2022-10-18T00:13:57.066Z,72.84
2022-10-18T00:14:59.979Z,72.86
2022-10-18T00:16:05.211Z,72.82
2022-10-18T00:17:08.152Z,72.78
2022-10-18T00:18:12.238Z,72.77
2022-10-18T00:19:15.201Z,72.80
2022-10-18T00:20:18.212Z,72.86
2022-10-18T00:21:23.555Z,72.71
2022-10-18T00:22:26.536Z,72.74
2022-10-18T00:23:31.299Z,72.60
2022-10-18T00:24:34.142Z,72.69
2022-10-18T00:25:40.425Z,72.84
2022-10-18T00:26:43.361Z,72.82
2022-10-18T00:27:46.335Z,72.77
2022-10-18T00:28:55.148Z,72.94
2022-10-18T00:29:58.390Z,73.03
2022-10-18T00:31:19.503Z,73.16
2022-10-18T00:32:22.479Z,73.33
2022-10-18T00:33:25.415Z,73.26
2022-10-18T00:34:28.131Z,73.30
2022-10-18T00:35:31.077Z,73.56
2022-10-18T00:36:34.862Z,73.60
2022-10-18T00:37:37.841Z,73.69
2022-10-18T00:39:01.610Z,73.96
2022-10-18T00:40:04.949Z,74.06
2022-10-18T00:41:12.306Z,74.34
2022-10-18T00:42:20.045Z,74.38
2022-10-18T00:43:22.708Z,74.47
2022-10-18T00:44:25.320Z,75.11
2022-10-18T00:45:28.321Z,75.03
2022-10-18T00:46:33.318Z,75.20
2022-10-18T00:47:36.815Z,75.17
2022-10-18T00:48:39.815Z,75.51
2022-10-18T00:49:46.144Z,75.69
2022-10-18T00:50:52.522Z,75.68
2022-10-18T00:52:04.130Z,75.71
2022-10-18T00:53:12.260Z,75.69
2022-10-18T00:54:18.375Z,75.55
2022-10-18T00:55:21.247Z,75.74
2022-10-18T00:56:24.213Z,76.04
2022-10-18T00:57:27.151Z,76.03
2022-10-18T00:58:30.271Z,76.46
2022-10-18T00:59:33.698Z,76.62
2022-10-18T01:00:39.862Z,76.70
2022-10-18T01:01:42.852Z,76.76
2022-10-18T01:02:47.129Z,76.93
2022-10-18T01:03:51.420Z,76.91
2022-10-18T01:04:54.130Z,76.97
2022-10-18T01:05:57.018Z,76.98
2022-10-18T01:07:28.375Z,76.88
2022-10-18T01:09:10.249Z,77.07
2022-10-18T01:10:51.529Z,77.07
2022-10-18T01:11:56.691Z,76.88
2022-10-18T01:13:30.023Z,76.86
2022-10-18T01:14:58.009Z,77.01
2022-10-18T01:16:08.608Z,76.85
2022-10-18T01:17:20.890Z,76.67
2022-10-18T01:18:45.469Z,76.74
2022-10-18T01:20:29.611Z,76.92
2022-10-18T01:21:56.252Z,77.16
2022-10-18T01:23:21.940Z,77.10
2022-10-18T01:24:27.463Z,76.98
2022-10-18T01:25:42.450Z,76.74
2022-10-18T01:27:00.053Z,76.76
2022-10-18T01:28:10.337Z,76.79
2022-10-18T01:29:31.808Z,76.59
2022-10-18T01:31:01.554Z,76.63
2022-10-18T01:32:10.463Z,76.62
2022-10-18T01:33:13.368Z,76.59
2022-10-18T01:34:18.971Z,76.56
2022-10-18T01:35:42.655Z,76.43
2022-10-18T01:36:52.258Z,76.50
2022-10-18T01:37:59.572Z,76.46
2022-10-18T01:39:07.300Z,76.46
2022-10-18T01:40:12.968Z,76.53
2022-10-18T01:41:19.175Z,76.56
2022-10-18T01:42:22.091Z,76.72
2022-10-18T01:43:25.850Z,76.65
2022-10-18T01:44:32.332Z,76.75
2022-10-18T01:45:35.011Z,76.69
2022-10-18T01:46:39.773Z,76.79
2022-10-18T01:47:47.445Z,76.93
2022-10-18T01:48:51.692Z,76.88
2022-10-18T01:50:00.164Z,76.96
2022-10-18T01:51:02.932Z,77.13
2022-10-18T01:52:06.131Z,77.11
2022-10-18T01:53:22.927Z,77.10
2022-10-18T01:54:33.651Z,77.12
2022-10-18T01:55:48.809Z,77.06
2022-10-18T01:57:09.701Z,76.98
2022-10-18T01:58:28.968Z,77.22
2022-10-18T01:59:40.771Z,77.03
2022-10-18T02:00:44.571Z,76.91
2022-10-18T02:01:47.014Z,76.90
2022-10-18T02:02:56.772Z,76.89
2022-10-18T02:04:11.528Z,76.91
2022-10-18T02:05:36.490Z,77.03
2022-10-18T02:06:45.538Z,76.96
2022-10-18T02:08:00.171Z,77.20
2022-10-18T02:09:30.168Z,77.15
2022-10-18T02:10:45.130Z,76.84
2022-10-18T02:11:51.574Z,76.95
2022-10-18T02:12:56.650Z,77.10
2022-10-18T02:14:08.535Z,77.11
2022-10-18T02:15:16.579Z,77.23
2022-10-18T02:16:32.342Z,77.27
2022-10-18T02:17:35.370Z,77.29
2022-10-18T02:18:42.409Z,77.35
2022-10-18T02:19:51.063Z,77.41
2022-10-18T02:20:55.170Z,77.33
2022-10-18T02:21:59.176Z,77.26
2022-10-18T02:23:03.463Z,77.25
2022-10-18T02:24:07.175Z,77.31
2022-10-18T02:25:16.734Z,77.29
2022-10-18T02:26:19.335Z,77.32
2022-10-18T02:27:22.900Z,77.34
2022-10-18T02:28:26.722Z,77.36
2022-10-18T02:29:30.321Z,77.49
2022-10-18T02:30:39.932Z,77.71
2022-10-18T02:31:48.896Z,77.64
2022-10-18T02:33:02.574Z,77.68
2022-10-18T02:34:13.774Z,77.77
2022-10-18T02:35:26.620Z,77.96
2022-10-18T02:36:34.861Z,77.84
2022-10-18T02:37:40.180Z,77.82
2022-10-18T02:38:45.695Z,78.14
2022-10-18T02:39:51.533Z,78.21
2022-10-18T02:40:54.205Z,78.30
2022-10-18T02:41:58.310Z,78.27
2022-10-18T02:43:01.013Z,78.30
2022-10-18T02:44:03.680Z,78.16
2022-10-18T02:45:07.075Z,78.09
2022-10-18T02:46:09.733Z,78.03
2022-10-18T02:47:13.025Z,77.97
2022-10-18T02:48:15.798Z,77.96
2022-10-18T02:49:22.503Z,77.86
2022-10-18T02:50:25.093Z,77.70
2022-10-18T02:51:27.825Z,77.46
2022-10-18T02:52:30.513Z,77.40
2022-10-18T02:53:33.224Z,77.23
2022-10-18T02:54:35.985Z,76.88
2022-10-18T02:55:38.704Z,76.45
2022-10-18T02:56:41.300Z,76.27
2022-10-18T02:57:44.055Z,76.19
2022-10-18T02:58:46.730Z,75.84
2022-10-18T02:59:49.456Z,75.59
2022-10-18T03:00:55.494Z,75.70
2022-10-18T03:01:58.059Z,75.54
2022-10-18T03:03:00.737Z,75.53
2022-10-18T03:04:04.957Z,75.50
2022-10-18T03:05:07.954Z,75.69
2022-10-18T03:06:10.764Z,75.76
2022-10-18T03:07:13.461Z,75.76
2022-10-18T03:08:19.863Z,75.46
2022-10-18T03:09:22.601Z,75.47
2022-10-18T03:10:25.295Z,75.46
2022-10-18T03:11:27.994Z,75.66
2022-10-18T03:12:30.591Z,75.67
2022-10-18T03:13:34.460Z,76.04
2022-10-18T03:14:37.262Z,76.40
2022-10-18T03:15:40.397Z,76.27
2022-10-18T03:16:43.188Z,76.48
2022-10-18T03:17:46.004Z,76.71
2022-10-18T03:18:49.114Z,76.56
2022-10-18T03:19:51.798Z,76.70
2022-10-18T03:20:54.511Z,76.86
2022-10-18T03:21:57.202Z,76.75
2022-10-18T03:22:59.872Z,76.93
2022-10-18T03:24:03.040Z,76.89
2022-10-18T03:25:06.039Z,77.53
2022-10-18T03:26:09.409Z,77.68
2022-10-18T03:27:12.027Z,77.50
2022-10-18T03:28:15.436Z,77.67
2022-10-18T03:29:18.581Z,77.97
2022-10-18T03:30:21.749Z,78.02
2022-10-18T03:31:24.452Z,78.26
2022-10-18T03:32:27.103Z,78.26
2022-10-18T03:33:30.808Z,78.42
2022-10-18T03:34:33.412Z,78.56
2022-10-18T03:35:36.091Z,78.47
2022-10-18T03:36:40.454Z,78.40
2022-10-18T03:37:43.456Z,78.51
2022-10-18T03:38:46.219Z,78.57
2022-10-18T03:39:48.891Z,78.60
2022-10-18T03:40:51.782Z,78.64
2022-10-18T03:41:54.417Z,78.89
2022-10-18T03:42:57.064Z,79.37
2022-10-18T03:43:59.729Z,79.35
2022-10-18T03:45:02.527Z,79.56
2022-10-18T03:46:05.328Z,79.64
2022-10-18T03:47:08.526Z,79.76
2022-10-18T03:48:11.332Z,79.97
2022-10-18T03:49:14.094Z,80.05
2022-10-18T03:50:17.251Z,80.26
2022-10-18T03:51:20.013Z,80.25
2022-10-18T03:52:26.902Z,79.95
2022-10-18T03:53:29.568Z,79.98
2022-10-18T03:54:33.216Z,80.32
2022-10-18T03:55:37.339Z,80.41
2022-10-18T03:56:40.095Z,80.26
2022-10-18T03:57:42.774Z,80.53
2022-10-18T03:58:45.689Z,80.71
2022-10-18T03:59:49.056Z,80.63
2022-10-18T04:00:53.263Z,80.63
2022-10-18T04:01:56.147Z,80.52
2022-10-18T04:02:58.774Z,80.71
2022-10-18T04:04:01.420Z,80.65
2022-10-18T04:05:04.299Z,80.68
2022-10-18T04:06:08.406Z,80.99
2022-10-18T04:07:11.095Z,81.26
2022-10-18T04:08:15.902Z,81.66
2022-10-18T04:09:19.374Z,81.60
2022-10-18T04:10:22.330Z,81.59
2022-10-18T04:11:24.930Z,81.82
2022-10-18T04:12:27.572Z,81.54
2022-10-18T04:13:30.258Z,81.63
2022-10-18T04:14:33.012Z,82.09
2022-10-18T04:15:35.697Z,82.46
2022-10-18T04:16:38.483Z,82.64
2022-10-18T04:17:41.175Z,82.65
2022-10-18T04:18:43.809Z,82.47
2022-10-18T04:19:46.490Z,82.38
2022-10-18T04:20:49.263Z,82.56
2022-10-18T04:21:51.879Z,82.68
2022-10-18T04:22:55.801Z,82.61
2022-10-18T04:23:58.413Z,82.32
2022-10-18T04:25:01.489Z,82.07
2022-10-18T04:26:04.358Z,82.07
2022-10-18T04:27:07.813Z,82.42
2022-10-18T04:28:12.395Z,82.47
2022-10-18T04:29:16.591Z,82.23
2022-10-18T04:30:19.230Z,82.09
2022-10-18T04:31:21.888Z,81.85
2022-10-18T04:32:24.966Z,81.81
2022-10-18T04:33:28.390Z,81.65
2022-10-18T04:34:31.045Z,81.40
2022-10-18T04:35:33.783Z,81.51
2022-10-18T04:36:36.515Z,81.47
2022-10-18T04:37:39.362Z,81.49
2022-10-18T04:38:45.402Z,81.26
2022-10-18T04:39:51.363Z,80.89
2022-10-18T04:40:56.296Z,80.98
2022-10-18T04:41:59.089Z,80.77
2022-10-18T04:43:01.707Z,80.24
2022-10-18T04:44:04.333Z,80.18
2022-10-18T04:45:07.592Z,79.72
2022-10-18T04:46:10.281Z,79.78
2022-10-18T04:47:16.518Z,79.68
2022-10-18T04:48:19.462Z,79.49
2022-10-18T04:49:22.054Z,78.82
2022-10-18T04:50:24.689Z,78.62
2022-10-18T04:51:28.525Z,78.42
2022-10-18T04:52:31.669Z,78.52
2022-10-18T04:53:34.137Z,77.90
2022-10-18T04:54:37.513Z,77.60
2022-10-18T04:55:43.528Z,77.12
2022-10-18T04:56:46.285Z,77.10
2022-10-18T04:57:49.840Z,77.12
2022-10-18T04:58:52.819Z,76.64
2022-10-18T04:59:55.586Z,76.72
2022-10-18T05:00:58.284Z,76.68
2022-10-18T05:02:04.960Z,76.24
2022-10-18T05:03:08.185Z,75.95
2022-10-18T05:04:10.954Z,76.57
2022-10-18T05:05:14.307Z,76.27
2022-10-18T05:06:20.580Z,76.05
2022-10-18T05:07:23.190Z,75.74
2022-10-18T05:08:29.243Z,75.00
2022-10-18T05:09:32.407Z,74.92
2022-10-18T05:10:35.068Z,74.76
2022-10-18T05:11:37.702Z,74.79
2022-10-18T05:12:40.351Z,75.00
2022-10-18T05:13:44.989Z,74.80
2022-10-18T05:14:50.011Z,74.63
2022-10-18T05:15:52.630Z,74.59
2022-10-18T05:16:55.202Z,74.22
2022-10-18T05:17:57.879Z,74.16
2022-10-18T05:19:00.642Z,73.39
2022-10-18T05:20:04.348Z,73.45
2022-10-18T05:21:06.999Z,73.57
2022-10-18T05:22:09.708Z,73.66
2022-10-18T05:23:12.368Z,73.62
2022-10-18T05:24:15.028Z,73.25
2022-10-18T05:25:17.752Z,73.21
2022-10-18T05:26:20.349Z,73.41
2022-10-18T05:27:23.014Z,72.81
2022-10-18T05:28:41.564Z,73.63
2022-10-18T05:29:44.470Z,73.82
2022-10-18T05:30:47.097Z,74.04
2022-10-18T05:31:54.133Z,74.25
2022-10-18T05:32:56.841Z,74.35
2022-10-18T05:33:59.371Z,74.80
2022-10-18T05:35:02.015Z,74.82
2022-10-18T05:36:04.996Z,74.80
2022-10-18T05:37:07.892Z,75.11
2022-10-18T05:38:10.637Z,75.41
2022-10-18T05:39:13.315Z,75.45
2022-10-18T05:40:16.083Z,75.97
2022-10-18T05:41:18.699Z,76.03
2022-10-18T05:42:21.408Z,76.15
2022-10-18T05:43:24.121Z,76.10
2022-10-18T05:44:27.899Z,75.91
2022-10-18T05:45:31.553Z,75.72
2022-10-18T05:46:34.427Z,75.48
2022-10-18T05:47:37.323Z,75.44
2022-10-18T05:48:40.745Z,75.33
2022-10-18T05:49:43.468Z,74.86
2022-10-18T05:50:46.136Z,74.58
2022-10-18T05:51:49.547Z,73.50
2022-10-18T05:53:02.704Z,72.94
2022-10-18T05:54:15.257Z,73.10
2022-10-18T05:55:17.980Z,72.61
2022-10-18T05:56:20.887Z,72.40
2022-10-18T05:57:23.539Z,72.33
2022-10-18T05:58:26.306Z,72.24
2022-10-18T05:59:29.274Z,72.37
2022-10-18T06:00:31.931Z,72.44
2022-10-18T06:01:34.808Z,72.32
2022-10-18T06:02:37.444Z,72.18
2022-10-18T06:03:40.252Z,71.62
2022-10-18T06:04:42.948Z,72.09
2022-10-18T06:05:45.514Z,72.44
2022-10-18T06:06:48.295Z,72.61
2022-10-18T06:07:50.901Z,72.99
2022-10-18T06:08:53.791Z,72.86
2022-10-18T06:09:56.387Z,72.66
2022-10-18T06:10:59.621Z,72.60
2022-10-18T06:12:02.285Z,72.27
2022-10-18T06:13:04.858Z,71.60
2022-10-18T06:14:08.452Z,71.34
2022-10-18T06:15:11.109Z,71.41
2022-10-18T06:16:16.924Z,71.49
2022-10-18T06:17:20.219Z,71.60
2022-10-18T06:18:22.963Z,71.33
2022-10-18T06:19:25.621Z,71.32
2022-10-18T06:20:28.201Z,70.82
2022-10-18T06:21:30.816Z,70.74
2022-10-18T06:22:33.775Z,70.72
2022-10-18T06:23:36.364Z,70.53
2022-10-18T06:24:39.148Z,70.94
2022-10-18T06:25:41.818Z,71.32
2022-10-18T06:26:44.779Z,71.35
2022-10-18T06:27:50.048Z,71.98
2022-10-18T06:28:52.731Z,71.99
2022-10-18T06:29:55.807Z,72.07
2022-10-18T06:30:58.547Z,72.15
2022-10-18T06:32:01.091Z,72.05
2022-10-18T06:33:03.752Z,71.74
2022-10-18T06:34:06.279Z,72.60
2022-10-18T06:35:09.446Z,72.65
2022-10-18T06:36:22.561Z,72.70
2022-10-18T06:37:25.494Z,72.65
2022-10-18T06:38:33.277Z,73.48
2022-10-18T06:39:35.972Z,73.51
2022-10-18T06:40:38.570Z,73.51
2022-10-18T06:41:41.183Z,73.57
2022-10-18T06:42:50.929Z,74.08
2022-10-18T06:44:13.606Z,74.12
2022-10-18T06:45:18.365Z,73.46
2022-10-18T06:46:21.183Z,73.84
2022-10-18T06:47:24.357Z,73.76
2022-10-18T06:48:27.324Z,72.88
2022-10-18T06:49:30.491Z,72.58
2022-10-18T06:50:33.560Z,72.59
2022-10-18T06:51:36.515Z,73.07
2022-10-18T06:52:39.388Z,72.87
2022-10-18T06:53:44.504Z,72.96
2022-10-18T06:54:56.127Z,72.99
2022-10-18T06:56:10.603Z,73.08
2022-10-18T06:57:13.222Z,73.40
2022-10-18T06:58:16.048Z,73.67
2022-10-18T06:59:18.701Z,74.13
2022-10-18T07:00:21.419Z,74.48
2022-10-18T07:01:24.394Z,74.74
2022-10-18T07:02:27.120Z,74.72
2022-10-18T07:03:30.110Z,74.76
2022-10-18T07:04:32.881Z,74.77
2022-10-18T07:05:35.595Z,74.88
2022-10-18T07:06:38.542Z,74.16
2022-10-18T07:07:41.273Z,74.29
2022-10-18T07:08:44.634Z,74.52
2022-10-18T07:09:48.066Z,74.60
2022-10-18T07:10:53.260Z,74.47
2022-10-18T07:11:55.967Z,73.72
2022-10-18T07:13:13.592Z,73.72
2022-10-18T07:14:24.728Z,73.83
2022-10-18T07:15:31.331Z,73.67
2022-10-18T07:16:35.012Z,73.58
2022-10-18T07:17:37.964Z,73.51
2022-10-18T07:18:43.850Z,72.58
2022-10-18T07:19:46.933Z,71.83
2022-10-18T07:20:49.659Z,71.90
2022-10-18T07:21:52.380Z,72.03
2022-10-18T07:22:58.182Z,72.20
2022-10-18T07:24:04.496Z,71.30
2022-10-18T07:25:07.752Z,69.67
2022-10-18T07:26:19.794Z,66.60
2022-10-18T07:27:26.455Z,66.08
2022-10-18T07:28:31.658Z,65.94
2022-10-18T07:29:39.407Z,66.36
2022-10-18T07:30:42.127Z,65.96
2022-10-18T07:31:44.852Z,65.63
2022-10-18T07:32:47.517Z,64.28
2022-10-18T07:33:50.504Z,63.05
2022-10-18T07:34:53.555Z,62.66
2022-10-18T07:35:56.288Z,62.93
2022-10-18T07:36:58.945Z,63.34
2022-10-18T07:38:01.562Z,62.95
2022-10-18T07:39:05.407Z,62.28
2022-10-18T07:40:09.068Z,60.18
2022-10-18T07:41:13.547Z,60.57
2022-10-18T07:42:16.388Z,59.84
2022-10-18T07:43:18.991Z,59.81
2022-10-18T07:44:21.817Z,59.86
2022-10-18T07:45:25.635Z,59.88
2022-10-18T07:46:28.355Z,59.37
2022-10-18T07:47:34.336Z,57.88
2022-10-18T07:48:38.216Z,55.96
2022-10-18T07:49:42.940Z,56.61
2022-10-18T07:50:45.695Z,56.42
2022-10-18T07:51:48.394Z,55.74
2022-10-18T07:52:52.566Z,56.03
2022-10-18T07:53:55.284Z,56.22
2022-10-18T07:54:57.891Z,56.26
2022-10-18T07:56:04.585Z,56.58
2022-10-18T07:57:10.120Z,56.42
2022-10-18T07:58:12.810Z,55.70
2022-10-18T07:59:15.840Z,55.19
2022-10-18T08:00:18.639Z,51.31
2022-10-18T08:01:23.206Z,50.97
2022-10-18T08:02:25.972Z,53.52
2022-10-18T08:03:28.610Z,54.72
2022-10-18T08:04:31.344Z,54.01
2022-10-18T08:05:34.090Z,51.08
2022-10-18T08:06:36.885Z,52.88
2022-10-18T08:07:39.612Z,52.12
2022-10-18T08:08:42.515Z,51.65
2022-10-18T08:09:45.083Z,50.34
2022-10-18T08:10:48.638Z,50.60
2022-10-18T08:11:51.165Z,50.47
2022-10-18T08:12:54.557Z,50.13
2022-10-18T08:13:57.239Z,49.59
2022-10-18T08:15:00.578Z,48.46
2022-10-18T08:16:06.091Z,47.02
2022-10-18T08:17:10.654Z,47.97
2022-10-18T08:18:15.673Z,49.18
2022-10-18T08:19:18.269Z,48.92
2022-10-18T08:20:30.324Z,48.50
2022-10-18T08:21:33.334Z,48.43
2022-10-18T08:22:35.930Z,49.88
2022-10-18T08:23:41.321Z,47.50
2022-10-18T08:24:44.021Z,47.88
2022-10-18T08:25:46.868Z,48.47
2022-10-18T08:26:50.637Z,48.52
2022-10-18T08:27:53.281Z,48.37
2022-10-18T08:29:17.913Z,47.40
2022-10-18T08:30:19.913Z,48.01
2022-10-18T08:31:22.568Z,47.57
2022-10-18T08:32:28.724Z,47.62
2022-10-18T08:33:32.102Z,47.83
2022-10-18T08:34:39.586Z,46.80
2022-10-18T08:35:42.277Z,45.30
2022-10-18T08:36:44.962Z,45.06
2022-10-18T08:37:48.654Z,46.39
2022-10-18T08:38:51.936Z,45.53
2022-10-18T08:39:54.575Z,45.69
2022-10-18T08:41:00.676Z,45.63
2022-10-18T08:42:36.114Z,45.24
2022-10-18T08:43:46.621Z,45.09
2022-10-18T08:44:51.161Z,43.59
2022-10-18T08:45:55.014Z,43.07
2022-10-18T08:47:18.760Z,43.25
2022-10-18T08:48:37.364Z,43.90
2022-10-18T08:49:58.303Z,44.46
2022-10-18T08:51:03.095Z,45.08
2022-10-18T08:52:34.218Z,45.63
2022-10-18T08:54:04.019Z,45.37
2022-10-18T08:55:18.808Z,44.10
2022-10-18T08:56:24.699Z,44.46
2022-10-18T08:57:27.338Z,44.58
2022-10-18T08:58:31.949Z,44.81
2022-10-18T08:59:40.101Z,43.65
2022-10-18T09:00:52.201Z,43.14
2022-10-18T09:01:54.939Z,43.65
2022-10-18T09:03:10.386Z,44.17
2022-10-18T09:04:18.788Z,43.84
2022-10-18T09:06:01.037Z,43.44
2022-10-18T09:07:22.465Z,42.48
2022-10-18T09:08:38.346Z,42.34
2022-10-18T09:10:01.313Z,42.79
2022-10-18T09:11:43.670Z,40.30
2022-10-18T09:13:01.774Z,41.53
2022-10-18T09:14:49.586Z,41.35
2022-10-18T09:16:06.063Z,40.96
2022-10-18T09:17:20.004Z,40.91
2022-10-18T09:19:12.387Z,41.26
2022-10-18T09:20:18.042Z,39.00
2022-10-18T09:21:28.892Z,40.03
2022-10-18T09:23:00.305Z,42.13
2022-10-18T09:24:09.435Z,42.52
2022-10-18T09:25:19.883Z,41.30
2022-10-18T09:26:24.499Z,41.08
2022-10-18T09:28:03.107Z,42.20
2022-10-18T09:29:24.571Z,41.74
2022-10-18T09:30:50.075Z,42.04
2022-10-18T09:32:04.865Z,42.06
2022-10-18T09:33:29.406Z,41.62
2022-10-18T09:34:43.001Z,40.64
2022-10-18T09:35:59.224Z,41.56
2022-10-18T09:37:03.231Z,41.54
2022-10-18T09:38:14.742Z,41.91
2022-10-18T09:39:20.713Z,42.08
2022-10-18T09:40:30.391Z,42.13
2022-10-18T09:41:41.444Z,41.85
2022-10-18T09:43:21.319Z,41.63
2022-10-18T09:44:37.591Z,41.99
2022-10-18T09:45:43.646Z,41.87
2022-10-18T09:46:51.553Z,41.02
2022-10-18T09:48:02.436Z,40.16
2022-10-18T09:49:17.424Z,40.17
2022-10-18T09:50:32.774Z,41.71
2022-10-18T09:51:39.157Z,41.56
2022-10-18T09:52:48.088Z,41.37
2022-10-18T09:54:03.514Z,41.28
2022-10-18T09:55:16.263Z,41.32
2022-10-18T09:56:36.675Z,41.81
2022-10-18T09:57:47.294Z,42.21
2022-10-18T09:58:51.754Z,41.57
2022-10-18T09:59:54.370Z,42.04
2022-10-18T10:00:57.051Z,42.44
2022-10-18T10:01:59.962Z,42.85
2022-10-18T10:03:07.442Z,42.13
2022-10-18T10:04:10.156Z,42.63
2022-10-18T10:05:14.388Z,40.64
2022-10-18T10:06:25.427Z,40.78
2022-10-18T10:07:35.168Z,40.73
2022-10-18T10:08:43.565Z,40.25
2022-10-18T10:09:49.787Z,40.37
2022-10-18T10:10:52.565Z,41.28
2022-10-18T10:11:56.167Z,40.81
2022-10-18T10:13:15.838Z,40.75
2022-10-18T10:14:23.240Z,39.96
2022-10-18T10:15:31.280Z,39.33
2022-10-18T10:16:52.064Z,40.29
2022-10-18T10:17:58.434Z,40.38
2022-10-18T10:19:01.790Z,39.61
2022-10-18T10:20:25.145Z,39.23
2022-10-18T10:21:31.591Z,39.86
2022-10-18T10:22:40.267Z,39.79
2022-10-18T10:23:53.166Z,38.99
2022-10-18T10:24:55.975Z,38.29
2022-10-18T10:26:21.463Z,38.02
2022-10-18T10:27:43.475Z,37.95
2022-10-18T10:28:49.160Z,38.43
2022-10-18T10:29:57.668Z,38.26
2022-10-18T10:31:24.286Z,37.71
2022-10-18T10:32:30.819Z,38.17
2022-10-18T10:33:36.484Z,37.85
2022-10-18T10:34:42.393Z,38.01
2022-10-18T10:35:58.745Z,37.98
2022-10-18T10:37:01.428Z,39.09
2022-10-18T10:38:08.523Z,38.93
2022-10-18T10:39:18.944Z,39.44
2022-10-18T10:40:27.820Z,39.20
2022-10-18T10:42:38.855Z,36.54
2022-10-18T10:43:45.833Z,36.60
2022-10-18T10:44:55.520Z,35.99
2022-10-18T10:46:20.828Z,36.65
2022-10-18T10:47:36.495Z,37.77
2022-10-18T10:49:15.463Z,37.84
2022-10-18T10:50:27.285Z,37.43
2022-10-18T10:51:37.508Z,37.67
2022-10-18T10:52:41.819Z,37.98
2022-10-18T10:54:00.182Z,37.73
2022-10-18T10:55:23.551Z,37.75
2022-10-18T10:56:36.261Z,37.56
2022-10-18T10:57:39.132Z,37.70
2022-10-18T10:58:42.305Z,37.63
2022-10-18T10:59:51.820Z,37.99
2022-10-18T11:00:57.692Z,38.02
2022-10-18T11:02:26.448Z,37.32
2022-10-18T11:03:31.292Z,37.33
2022-10-18T11:04:34.068Z,37.21
2022-10-18T11:05:48.996Z,37.90
2022-10-18T11:07:33.669Z,38.39
2022-10-18T11:08:43.551Z,38.53
2022-10-18T11:10:01.295Z,38.71
2022-10-18T11:11:22.881Z,38.42
2022-10-18T11:12:36.663Z,37.85
2022-10-18T11:14:13.586Z,38.74
2022-10-18T11:15:25.284Z,38.83
2022-10-18T11:16:39.965Z,39.03
2022-10-18T11:17:49.122Z,39.55
2022-10-18T11:18:54.178Z,40.16
2022-10-18T11:20:05.418Z,39.85
2022-10-18T11:21:15.053Z,39.98
2022-10-18T11:22:22.148Z,40.13
2022-10-18T11:23:37.346Z,38.27
2022-10-18T11:24:40.391Z,37.14
2022-10-18T11:25:56.425Z,36.89
2022-10-18T11:27:11.058Z,36.67
2022-10-18T11:28:46.887Z,36.38
2022-10-18T11:30:15.503Z,37.29
2022-10-18T11:31:40.853Z,38.16
2022-10-18T11:32:54.916Z,38.24
2022-10-18T11:34:32.146Z,38.06
2022-10-18T11:36:02.877Z,38.99
2022-10-18T11:37:33.400Z,39.77
2022-10-18T11:39:02.526Z,38.41
2022-10-18T11:40:17.007Z,39.34
2022-10-18T11:41:30.335Z,38.49
2022-10-18T11:42:42.369Z,37.93
2022-10-18T11:44:02.762Z,37.03
2022-10-18T11:45:26.926Z,36.94
2022-10-18T11:47:01.682Z,38.53
2022-10-18T11:48:22.676Z,38.64
2022-10-18T11:49:32.819Z,39.98
2022-10-18T11:50:47.566Z,39.50
2022-10-18T11:52:09.274Z,39.47
2022-10-18T11:53:20.278Z,39.30
2022-10-18T11:54:22.806Z,38.34
2022-10-18T11:55:43.577Z,37.78
2022-10-18T11:56:57.341Z,38.02
2022-10-18T11:58:23.271Z,37.11
2022-10-18T11:59:39.730Z,38.31
2022-10-18T12:01:12.110Z,37.87
2022-10-18T12:02:48.304Z,37.39
2022-10-18T12:03:54.969Z,37.07
2022-10-18T12:05:22.736Z,37.52
2022-10-18T12:06:31.757Z,39.08
2022-10-18T12:07:41.203Z,38.49
2022-10-18T12:08:55.998Z,38.65
2022-10-18T12:10:01.883Z,38.39
2022-10-18T12:11:25.234Z,37.98
2022-10-18T12:12:33.927Z,38.39
2022-10-18T12:13:43.684Z,39.52
2022-10-18T12:14:53.659Z,38.67
2022-10-18T12:15:56.851Z,39.30
2022-10-18T12:18:29.620Z,38.50
2022-10-18T12:19:35.521Z,38.54
2022-10-18T12:20:53.343Z,38.71
2022-10-18T12:22:12.587Z,39.12
2022-10-18T12:23:22.209Z,38.75
2022-10-18T12:24:31.089Z,37.83
2022-10-18T12:25:38.743Z,37.84
2022-10-18T12:26:41.665Z,38.04
2022-10-18T12:28:08.837Z,38.42
2022-10-18T12:29:35.052Z,38.59
2022-10-18T12:30:54.054Z,38.72
2022-10-18T12:32:06.328Z,38.90
2022-10-18T12:33:27.690Z,39.13
2022-10-18T12:34:49.528Z,38.99
2022-10-18T12:35:52.113Z,37.15
2022-10-18T12:37:18.527Z,38.28
2022-10-18T12:38:28.314Z,38.73
2022-10-18T12:39:44.140Z,37.88
2022-10-18T12:40:54.735Z,38.11
2022-10-18T12:41:57.703Z,38.81
2022-10-18T12:43:00.340Z,39.34
2022-10-18T12:44:18.065Z,39.08
2022-10-18T12:45:28.821Z,39.11
2022-10-18T12:46:53.968Z,38.88
2022-10-18T12:48:01.978Z,38.61
2022-10-18T12:49:05.864Z,39.18
2022-10-18T12:50:34.958Z,40.37
2022-10-18T12:51:55.201Z,40.93
2022-10-18T12:53:10.178Z,40.31
2022-10-18T12:54:16.959Z,39.72
2022-10-18T12:55:19.660Z,39.54
2022-10-18T12:56:28.245Z,39.21
2022-10-18T12:57:52.755Z,38.88
2022-10-18T12:59:14.682Z,38.04
2022-10-18T13:00:32.451Z,37.56
2022-10-18T13:01:56.729Z,37.64
2022-10-18T13:03:16.839Z,37.67
2022-10-18T13:04:32.667Z,38.54
2022-10-18T13:05:56.270Z,39.96
2022-10-18T13:07:05.604Z,40.40
2022-10-18T13:08:31.836Z,39.48
2022-10-18T13:09:45.046Z,38.30
2022-10-18T13:10:47.809Z,38.37
2022-10-18T13:11:52.513Z,38.44
2022-10-18T13:13:38.779Z,38.86
2022-10-18T13:15:26.558Z,39.24
2022-10-18T13:17:03.518Z,38.78
2022-10-18T13:18:30.076Z,39.80
2022-10-18T13:19:58.102Z,40.21
2022-10-18T13:21:17.377Z,38.98
2022-10-18T13:22:30.155Z,39.52
2022-10-18T13:24:00.822Z,39.57
2022-10-18T13:25:21.552Z,39.50
2022-10-18T13:26:32.118Z,39.00
2022-10-18T13:27:58.708Z,40.66
2022-10-18T13:29:36.461Z,40.88
2022-10-18T13:30:44.749Z,40.65
2022-10-18T13:32:03.173Z,40.61
2022-10-18T13:33:28.222Z,40.39
2022-10-18T13:34:38.580Z,40.04
2022-10-18T13:35:57.952Z,40.43
2022-10-18T13:37:06.289Z,39.92
2022-10-18T13:38:33.708Z,38.70
2022-10-18T13:39:38.352Z,38.69
2022-10-18T13:40:41.202Z,39.43
2022-10-18T13:41:43.814Z,39.52
2022-10-18T13:42:46.533Z,39.49
2022-10-18T13:44:01.016Z,39.87
2022-10-18T13:45:32.869Z,40.44
2022-10-18T13:46:36.642Z,39.55
2022-10-18T13:47:39.385Z,39.36
2022-10-18T13:48:46.989Z,39.58
2022-10-18T13:50:17.352Z,39.03
2022-10-18T13:51:30.659Z,39.36
2022-10-18T13:52:46.342Z,40.07
2022-10-18T13:53:54.867Z,40.76
2022-10-18T13:55:36.186Z,40.39
2022-10-18T13:56:38.683Z,40.42
2022-10-18T13:57:47.865Z,39.78
2022-10-18T13:59:14.110Z,39.67
2022-10-18T14:00:22.504Z,39.97
2022-10-18T14:01:33.356Z,40.38
2022-10-18T14:03:56.151Z,40.16
2022-10-18T14:05:24.510Z,40.42
2022-10-18T14:06:42.637Z,41.19
2022-10-18T14:07:47.535Z,41.15
2022-10-18T14:09:14.170Z,41.37
2022-10-18T14:10:57.378Z,41.90
2022-10-18T14:12:21.980Z,41.03
2022-10-18T14:13:29.526Z,40.85
2022-10-18T14:14:45.367Z,41.01
2022-10-18T14:15:52.083Z,40.63
2022-10-18T14:17:03.719Z,40.61
2022-10-18T14:18:18.786Z,39.95
2022-10-18T14:20:13.280Z,40.16
2022-10-18T14:21:31.443Z,40.42
2022-10-18T14:22:45.006Z,40.93
2022-10-18T14:23:47.922Z,40.49
2022-10-18T14:24:54.428Z,41.06
2022-10-18T14:26:13.258Z,41.55
2022-10-18T14:27:21.943Z,41.31
2022-10-18T14:28:36.298Z,41.62
2022-10-18T14:29:45.333Z,41.32
2022-10-18T14:31:00.057Z,42.57
2022-10-18T14:32:02.744Z,42.38
2022-10-18T14:33:05.788Z,42.38
2022-10-18T14:34:15.767Z,42.43
2022-10-18T14:35:33.277Z,42.28
2022-10-18T14:36:41.196Z,41.79
2022-10-18T14:37:46.803Z,42.06
2022-10-18T14:38:58.769Z,41.74
2022-10-18T14:40:05.189Z,41.93
2022-10-18T14:41:20.403Z,42.20
2022-10-18T14:42:26.139Z,41.77
2022-10-18T14:43:28.885Z,41.68
2022-10-18T14:44:33.170Z,42.14
2022-10-18T14:45:35.864Z,42.55
2022-10-18T14:46:46.394Z,42.45
2022-10-18T14:47:49.231Z,42.51
2022-10-18T14:48:58.594Z,42.43
2022-10-18T14:50:01.390Z,41.84
2022-10-18T14:51:10.273Z,42.04